createdAt,value
2018-08-03T00:02:01.215Z,7.55
2018-08-03T00:04:29.394Z,6.95
2018-08-03T00:06:57.569Z,7.47
2018-08-03T00:09:25.771Z,7.80
2018-08-03T00:11:53.946Z,7.25
2018-08-03T00:14:22.053Z,7.53
2018-08-03T00:16:50.217Z,7.15
2018-08-03T00:19:18.306Z,7.42
2018-08-03T00:21:46.383Z,6.95
2018-08-03T00:24:14.490Z,7.20
2018-08-03T00:26:42.689Z,6.92
2018-08-03T00:29:10.863Z,6.95
2018-08-03T00:31:39.070Z,6.85
2018-08-03T00:34:07.448Z,6.87
2018-08-03T00:36:35.601Z,6.78
2018-08-03T00:39:05.136Z,7.00
2018-08-03T00:41:33.218Z,6.35
2018-08-03T00:44:01.430Z,6.75
2018-08-03T00:46:29.629Z,6.87
2018-08-03T00:48:57.781Z,7.35
2018-08-03T00:51:25.986Z,6.65
2018-08-03T00:53:54.179Z,6.80
2018-08-03T00:56:22.329Z,6.55
2018-08-03T00:58:50.422Z,5.83
2018-08-03T01:01:18.606Z,6.53
2018-08-03T01:03:46.925Z,6.00
2018-08-03T01:06:15.078Z,6.42
2018-08-03T01:08:43.174Z,6.30
2018-08-03T01:11:11.355Z,6.65
2018-08-03T01:13:39.430Z,5.90
2018-08-03T01:16:07.658Z,6.50
2018-08-03T01:18:35.805Z,6.10
2018-08-03T01:21:03.906Z,6.45
2018-08-03T01:23:32.100Z,6.62
2018-08-03T01:26:00.273Z,6.75
2018-08-03T01:28:28.349Z,6.60
2018-08-03T01:30:56.434Z,5.80
2018-08-03T01:33:24.509Z,6.10
2018-08-03T01:35:52.611Z,6.55
2018-08-03T01:38:20.782Z,6.62
2018-08-03T01:40:48.875Z,6.40
2018-08-03T01:43:16.950Z,6.87
2018-08-03T01:45:45.054Z,6.62
2018-08-03T01:48:13.232Z,7.33
2018-08-03T01:50:41.139Z,6.37
2018-08-03T01:53:09.293Z,6.65
2018-08-03T01:55:37.366Z,6.22
2018-08-03T01:58:05.741Z,6.65
2018-08-03T02:00:33.862Z,6.20
2018-08-03T02:03:01.933Z,6.03
2018-08-03T02:05:30.149Z,6.25
2018-08-03T02:07:58.314Z,6.47
2018-08-03T02:10:27.428Z,5.80
2018-08-03T02:12:55.614Z,5.72
2018-08-03T02:15:23.725Z,5.80
2018-08-03T02:17:51.882Z,5.90
2018-08-03T02:20:19.977Z,5.85
2018-08-03T02:22:48.145Z,6.00
2018-08-03T02:25:16.243Z,6.05
2018-08-03T02:27:44.465Z,5.83
2018-08-03T02:30:12.623Z,5.62
2018-08-03T02:32:40.802Z,5.28
2018-08-03T02:35:09.002Z,6.17
2018-08-03T02:37:37.191Z,5.08
2018-08-03T02:40:05.379Z,5.40
2018-08-03T02:42:33.555Z,5.85
2018-08-03T02:45:01.762Z,5.60
2018-08-03T02:47:29.921Z,5.47
2018-08-03T02:49:58.335Z,5.00
2018-08-03T02:52:26.501Z,5.25
2018-08-03T02:54:54.719Z,6.17
2018-08-03T02:57:22.879Z,5.75
2018-08-03T02:59:51.078Z,6.00
2018-08-03T03:02:19.244Z,5.42
2018-08-03T03:04:47.442Z,5.58
2018-08-03T03:07:15.666Z,5.58
2018-08-03T03:09:43.813Z,5.62
2018-08-03T03:12:11.999Z,5.85
2018-08-03T03:14:40.202Z,6.22
2018-08-03T03:17:08.370Z,5.28
2018-08-03T03:19:36.815Z,6.00
2018-08-03T03:22:04.967Z,6.15
2018-08-03T03:24:33.361Z,5.75
2018-08-03T03:27:01.549Z,6.22
2018-08-03T03:29:29.714Z,5.92
2018-08-03T03:31:57.906Z,6.12
2018-08-03T03:34:26.110Z,6.05
2018-08-03T03:36:54.302Z,5.30
2018-08-03T03:39:22.462Z,5.75
2018-08-03T03:41:50.685Z,5.95
2018-08-03T03:44:18.838Z,6.10
2018-08-03T03:46:47.026Z,5.80
2018-08-03T03:49:15.210Z,6.05
2018-08-03T03:51:43.405Z,6.22
2018-08-03T03:54:11.599Z,5.60
2018-08-03T03:56:39.787Z,5.87
2018-08-03T03:59:07.986Z,6.28
2018-08-03T04:01:36.182Z,5.87
2018-08-03T04:04:04.374Z,6.20
2018-08-03T04:06:32.573Z,6.10
2018-08-03T04:09:00.714Z,6.28
2018-08-03T04:11:28.915Z,5.62
2018-08-03T04:13:57.089Z,5.75
2018-08-03T04:16:25.279Z,6.10
2018-08-03T04:18:53.462Z,6.80
2018-08-03T04:21:21.673Z,6.55
2018-08-03T04:23:49.829Z,6.85
2018-08-03T04:26:18.041Z,6.45
2018-08-03T04:28:46.233Z,6.12
2018-08-03T04:31:14.394Z,5.83
2018-08-03T04:33:42.578Z,6.25
2018-08-03T04:36:10.757Z,6.67
2018-08-03T04:38:38.946Z,6.40
2018-08-03T04:41:07.345Z,5.90
2018-08-03T04:43:35.428Z,6.60
2018-08-03T04:46:03.718Z,6.92
2018-08-03T04:48:31.875Z,6.97
2018-08-03T04:51:00.014Z,6.72
2018-08-03T04:53:28.383Z,6.42
2018-08-03T04:55:56.567Z,6.95
2018-08-03T04:58:24.746Z,6.30
2018-08-03T05:00:53.474Z,6.28
2018-08-03T05:03:21.657Z,6.50
2018-08-03T05:05:49.928Z,7.05
2018-08-03T05:08:18.014Z,6.05
2018-08-03T05:10:46.221Z,6.80
2018-08-03T05:13:14.618Z,6.35
2018-08-03T05:15:42.781Z,6.78
2018-08-03T05:18:10.985Z,6.10
2018-08-03T05:20:39.160Z,6.95
2018-08-03T05:23:07.349Z,6.65
2018-08-03T05:25:35.525Z,6.35
2018-08-03T05:28:03.817Z,7.00
2018-08-03T05:30:31.901Z,6.53
2018-08-03T05:33:00.102Z,6.40
2018-08-03T05:35:28.422Z,6.75
2018-08-03T05:37:56.470Z,6.62
2018-08-03T05:40:24.870Z,7.20
2018-08-03T05:42:53.070Z,6.75
2018-08-03T05:45:21.247Z,6.83
2018-08-03T05:47:49.429Z,6.97
2018-08-03T05:50:17.557Z,7.37
2018-08-03T05:52:45.691Z,6.70
2018-08-03T05:55:13.947Z,7.33
2018-08-03T05:57:41.966Z,6.87
2018-08-03T06:00:10.133Z,6.78
2018-08-03T06:02:38.339Z,6.97
2018-08-03T06:05:07.405Z,7.80
2018-08-03T06:07:35.530Z,7.67
2018-08-03T06:10:03.812Z,7.03
2018-08-03T06:12:32.022Z,7.22
2018-08-03T06:15:00.185Z,7.25
2018-08-03T06:17:28.410Z,7.92
2018-08-03T06:19:56.558Z,7.22
2018-08-03T06:22:24.779Z,7.20
2018-08-03T06:24:53.238Z,7.28
2018-08-03T06:27:21.442Z,7.90
2018-08-03T06:29:49.677Z,7.40
2018-08-03T06:32:17.794Z,7.35
2018-08-03T06:34:45.990Z,6.83
2018-08-03T06:37:14.173Z,6.90
2018-08-03T06:39:42.362Z,7.03
2018-08-03T06:42:10.545Z,6.85
2018-08-03T06:44:38.730Z,7.97
2018-08-03T06:47:06.958Z,7.28
2018-08-03T06:49:35.106Z,6.80
2018-08-03T06:52:03.303Z,7.45
2018-08-03T06:54:31.483Z,7.22
2018-08-03T06:56:59.670Z,6.80
2018-08-03T06:59:27.869Z,7.00
2018-08-03T07:01:56.034Z,7.42
2018-08-03T07:04:24.274Z,7.37
2018-08-03T07:06:52.321Z,7.03
2018-08-03T07:09:20.495Z,7.00
2018-08-03T07:11:48.690Z,6.78
2018-08-03T07:14:16.862Z,7.30
2018-08-03T07:16:44.958Z,7.65
2018-08-03T07:19:13.155Z,7.30
2018-08-03T07:21:41.350Z,7.42
2018-08-03T07:24:09.670Z,7.33
2018-08-03T07:26:37.831Z,7.10
2018-08-03T07:29:06.045Z,7.20
2018-08-03T07:31:34.197Z,7.00
2018-08-03T07:34:02.385Z,6.62
2018-08-03T07:36:30.587Z,6.75
2018-08-03T07:38:58.662Z,6.40
2018-08-03T07:41:26.821Z,6.60
2018-08-03T07:43:55.007Z,6.42
2018-08-03T07:46:23.103Z,6.83
2018-08-03T07:48:51.285Z,6.58
2018-08-03T07:51:19.366Z,6.47
2018-08-03T07:53:47.581Z,6.78
2018-08-03T07:56:15.743Z,7.12
2018-08-03T07:58:43.954Z,7.12
2018-08-03T08:01:12.110Z,7.30
2018-08-03T08:03:40.305Z,6.65
2018-08-03T08:06:08.486Z,6.58
2018-08-03T08:08:36.615Z,7.03
2018-08-03T08:11:04.772Z,6.80
2018-08-03T08:13:32.967Z,6.08
2018-08-03T08:16:01.132Z,6.70
2018-08-03T08:18:29.326Z,6.70
2018-08-03T08:20:57.507Z,6.33
2018-08-03T08:23:25.716Z,6.87
2018-08-03T08:25:53.898Z,6.22
2018-08-03T08:28:22.083Z,6.47
2018-08-03T08:30:50.257Z,5.62
2018-08-03T08:33:18.438Z,6.25
2018-08-03T08:35:46.637Z,6.17
2018-08-03T08:38:14.817Z,6.35
2018-08-03T08:40:43.001Z,6.50
2018-08-03T08:43:11.188Z,5.70
2018-08-03T08:45:39.382Z,5.67
2018-08-03T08:48:07.577Z,6.00
2018-08-03T08:50:35.747Z,6.15
2018-08-03T08:53:03.951Z,6.75
2018-08-03T08:55:32.045Z,5.37
2018-08-03T08:58:00.212Z,5.78
2018-08-03T09:00:28.317Z,5.80
2018-08-03T09:02:56.498Z,6.10
2018-08-03T09:05:24.662Z,6.55
2018-08-03T09:07:52.806Z,6.50
2018-08-03T09:10:20.946Z,6.12
2018-08-03T09:12:49.151Z,6.45
2018-08-03T09:15:17.329Z,6.05
2018-08-03T09:17:45.513Z,6.85
2018-08-03T09:20:13.684Z,6.03
2018-08-03T09:22:41.881Z,5.78
2018-08-03T09:25:10.178Z,6.40
2018-08-03T09:27:38.361Z,5.95
2018-08-03T09:30:07.725Z,6.35
2018-08-03T09:32:35.661Z,6.22
2018-08-03T09:35:03.937Z,6.17
2018-08-03T09:37:32.027Z,6.30
2018-08-03T09:40:00.215Z,6.20
2018-08-03T09:42:28.501Z,6.40
2018-08-03T09:44:56.679Z,6.72
2018-08-03T09:47:24.875Z,6.12
2018-08-03T09:49:53.066Z,6.78
2018-08-03T09:52:21.162Z,6.37
2018-08-03T09:54:49.378Z,6.22
2018-08-03T09:57:17.530Z,6.10
2018-08-03T09:59:45.710Z,5.55
2018-08-03T10:02:13.886Z,6.25
2018-08-03T10:04:42.071Z,6.22
2018-08-03T10:07:10.262Z,6.25
2018-08-03T10:09:38.465Z,5.90
2018-08-03T10:12:06.633Z,6.03
2018-08-03T10:14:34.830Z,5.35
2018-08-03T10:17:03.010Z,5.97
2018-08-03T10:19:31.208Z,6.05
2018-08-03T10:21:59.378Z,6.03
2018-08-03T10:24:27.576Z,5.35
2018-08-03T10:26:55.761Z,6.30
2018-08-03T10:29:23.958Z,5.08
2018-08-03T10:31:52.123Z,6.42
2018-08-03T10:34:20.339Z,4.72
2018-08-03T10:36:48.489Z,5.30
2018-08-03T10:39:16.590Z,5.40
2018-08-03T10:41:44.766Z,5.35
2018-08-03T10:44:12.957Z,4.87
2018-08-03T10:46:41.039Z,4.60
2018-08-03T10:49:09.242Z,5.80
2018-08-03T10:51:37.427Z,5.78
2018-08-03T10:54:05.765Z,5.50
2018-08-03T10:56:33.954Z,5.20
2018-08-03T10:59:02.087Z,4.95
2018-08-03T11:01:30.363Z,4.72
2018-08-03T11:03:58.567Z,5.03
2018-08-03T11:06:26.743Z,4.83
2018-08-03T11:08:54.939Z,4.80
2018-08-03T11:11:23.115Z,4.37
2018-08-03T11:13:51.314Z,4.62
2018-08-03T11:16:19.515Z,4.70
2018-08-03T11:18:47.681Z,4.12
2018-08-03T11:21:15.861Z,4.90
2018-08-03T11:23:44.049Z,5.35
2018-08-03T11:26:12.238Z,4.90
2018-08-03T11:28:40.433Z,4.58
2018-08-03T11:31:08.607Z,4.97
2018-08-03T11:33:36.797Z,4.80
2018-08-03T11:36:04.999Z,4.78
2018-08-03T11:38:33.272Z,4.62
2018-08-03T11:41:01.467Z,4.78
2018-08-03T11:43:29.654Z,4.80
2018-08-03T11:45:57.825Z,4.97
2018-08-03T11:48:25.936Z,4.50
2018-08-03T11:50:54.106Z,4.78
2018-08-03T11:53:22.293Z,5.15
2018-08-03T11:55:51.247Z,4.53
2018-08-03T11:58:19.415Z,4.83
2018-08-03T12:00:47.512Z,5.20
2018-08-03T12:03:15.655Z,4.45
2018-08-03T12:05:43.854Z,4.83
2018-08-03T12:08:12.254Z,4.37
2018-08-03T12:10:40.451Z,4.58
2018-08-03T12:13:09.107Z,4.53
2018-08-03T12:15:37.223Z,4.42
2018-08-03T12:18:05.417Z,4.60
2018-08-03T12:20:33.605Z,4.87
2018-08-03T12:23:01.763Z,5.03
2018-08-03T12:25:30.107Z,4.45
2018-08-03T12:27:58.239Z,4.62
2018-08-03T12:30:27.358Z,5.75
2018-08-03T12:32:55.531Z,5.03
2018-08-03T12:35:23.803Z,4.97
2018-08-03T12:37:51.915Z,4.83
2018-08-03T12:40:20.109Z,5.28
2018-08-03T12:42:48.286Z,4.85
2018-08-03T12:45:16.470Z,4.95
2018-08-03T12:47:44.646Z,5.35
2018-08-03T12:50:12.746Z,4.58
2018-08-03T12:52:41.024Z,4.78
2018-08-03T12:55:09.029Z,4.50
2018-08-03T12:57:37.194Z,4.85
2018-08-03T13:00:05.849Z,4.80
2018-08-03T13:02:33.990Z,4.87
2018-08-03T13:05:02.180Z,4.58
2018-08-03T13:07:30.537Z,4.97
2018-08-03T13:09:58.646Z,4.55
2018-08-03T13:12:26.852Z,4.87
2018-08-03T13:14:55.063Z,4.75
2018-08-03T13:17:23.203Z,4.85
2018-08-03T13:19:51.390Z,4.50
2018-08-03T13:22:23.278Z,4.72
2018-08-03T13:24:51.985Z,5.10
2018-08-03T13:27:20.586Z,4.60
2018-08-03T13:29:48.769Z,4.42
2018-08-03T13:32:16.921Z,4.40
2018-08-03T13:34:45.031Z,4.55
2018-08-03T13:37:13.211Z,4.60
2018-08-03T13:39:41.405Z,4.42
2018-08-03T13:42:09.578Z,4.67
2018-08-03T13:44:37.696Z,4.50
2018-08-03T13:47:06.093Z,4.53
2018-08-03T13:49:34.245Z,4.70
2018-08-03T13:52:02.439Z,4.72
2018-08-03T13:54:30.741Z,4.35
2018-08-03T13:56:58.926Z,4.50
2018-08-03T13:59:27.106Z,4.92
2018-08-03T14:02:06.812Z,4.58
2018-08-03T14:04:34.949Z,4.60
2018-08-03T14:07:03.047Z,4.12
2018-08-03T14:09:31.212Z,4.55
2018-08-03T14:11:59.401Z,4.47
2018-08-03T14:14:27.602Z,4.90
2018-08-03T14:16:55.774Z,4.35
2018-08-03T14:19:23.970Z,4.37
2018-08-03T14:21:52.145Z,4.97
2018-08-03T14:24:20.350Z,4.30
2018-08-03T14:26:48.526Z,4.85
2018-08-03T14:29:17.609Z,4.55
2018-08-03T14:31:45.768Z,4.45
2018-08-03T14:34:13.892Z,4.42
2018-08-03T14:36:42.011Z,4.70
2018-08-03T14:39:10.802Z,4.40
2018-08-03T14:41:39.198Z,4.15
2018-08-03T14:44:08.208Z,4.70
2018-08-03T14:46:37.006Z,5.00
2018-08-03T14:49:05.297Z,4.83
2018-08-03T14:51:33.457Z,4.75
2018-08-03T14:54:01.654Z,4.53
2018-08-03T14:56:29.829Z,4.30
2018-08-03T14:58:58.005Z,4.95
2018-08-03T15:01:26.325Z,5.33
2018-08-03T15:03:54.481Z,4.40
2018-08-03T15:06:22.745Z,4.33
2018-08-03T15:08:50.870Z,4.12
2018-08-03T15:11:19.081Z,4.53
2018-08-03T15:13:47.237Z,4.62
2018-08-03T15:16:15.423Z,4.80
2018-08-03T15:18:43.607Z,4.33
2018-08-03T15:21:11.817Z,4.80
2018-08-03T15:23:39.986Z,5.05
2018-08-03T15:26:08.290Z,4.30
2018-08-03T15:28:36.459Z,4.37
2018-08-03T15:31:04.670Z,5.00
2018-08-03T15:33:32.854Z,4.92
2018-08-03T15:36:01.046Z,4.95
2018-08-03T15:38:29.226Z,6.05
2018-08-03T15:40:57.449Z,6.35
2018-08-03T15:43:25.585Z,5.90
2018-08-03T15:45:53.848Z,4.45
2018-08-03T15:48:21.981Z,6.58
2018-08-03T15:50:50.177Z,5.35
2018-08-03T15:53:18.323Z,5.50
2018-08-03T15:55:46.460Z,5.58
2018-08-03T15:58:14.698Z,4.55
2018-08-03T16:00:42.898Z,4.83
2018-08-03T16:03:11.077Z,4.50
2018-08-03T16:05:39.160Z,4.58
2018-08-03T16:08:07.398Z,5.15
2018-08-03T16:10:35.553Z,4.70
2018-08-03T16:13:03.825Z,4.35
2018-08-03T16:15:31.954Z,4.60
2018-08-03T16:18:00.098Z,4.95
2018-08-03T16:20:29.254Z,4.67
2018-08-03T16:22:57.386Z,4.72
2018-08-03T16:25:25.510Z,4.92
2018-08-03T16:27:53.674Z,4.10
2018-08-03T16:30:21.853Z,4.65
2018-08-03T16:32:50.031Z,4.85
2018-08-03T16:35:18.234Z,5.12
2018-08-03T16:37:46.498Z,4.30
2018-08-03T16:40:14.598Z,4.72
2018-08-03T16:42:42.786Z,4.80
2018-08-03T16:45:10.987Z,4.37
2018-08-03T16:47:39.158Z,4.70
2018-08-03T16:50:07.497Z,4.37
2018-08-03T16:52:35.662Z,4.72
2018-08-03T16:55:03.945Z,4.67
2018-08-03T16:57:32.053Z,4.35
2018-08-03T17:00:00.175Z,4.17
2018-08-03T17:02:28.288Z,4.60
2018-08-03T17:04:56.473Z,4.97
2018-08-03T17:07:24.659Z,4.95
2018-08-03T17:09:53.052Z,4.40
2018-08-03T17:12:21.198Z,4.40
2018-08-03T17:14:49.304Z,4.65
2018-08-03T17:17:17.401Z,4.28
2018-08-03T17:19:45.648Z,4.20
2018-08-03T17:22:13.810Z,4.17
2018-08-03T17:24:42.017Z,4.15
2018-08-03T17:27:10.171Z,3.92
2018-08-03T17:29:38.376Z,4.03
2018-08-03T17:32:06.587Z,4.00
2018-08-03T17:34:34.731Z,4.05
2018-08-03T17:37:02.920Z,3.70
2018-08-03T17:39:31.073Z,4.40
2018-08-03T17:41:59.182Z,4.22
2018-08-03T17:44:27.270Z,4.08
2018-08-03T17:46:55.389Z,4.33
2018-08-03T17:49:23.509Z,4.10
2018-08-03T17:51:51.617Z,4.15
2018-08-03T17:54:19.790Z,3.65
2018-08-03T17:56:47.901Z,3.85
2018-08-03T17:59:16.053Z,4.08
2018-08-03T18:01:44.166Z,3.55
2018-08-03T18:04:12.330Z,3.42
2018-08-03T18:06:40.645Z,3.98
2018-08-03T18:09:08.850Z,4.10
2018-08-03T18:11:36.926Z,4.45
2018-08-03T18:14:05.312Z,4.22
2018-08-03T18:16:33.510Z,3.98
2018-08-03T18:19:01.693Z,4.05
2018-08-03T18:21:29.850Z,3.95
2018-08-03T18:23:57.939Z,4.30
2018-08-03T18:26:26.265Z,3.95
2018-08-03T18:28:54.473Z,3.75
2018-08-03T18:31:22.610Z,3.95
2018-08-03T18:33:51.242Z,3.60
2018-08-03T18:36:19.403Z,3.85
2018-08-03T18:38:47.585Z,3.60
2018-08-03T18:41:15.885Z,3.35
2018-08-03T18:43:44.122Z,3.77
2018-08-03T18:46:12.098Z,3.80
2018-08-03T18:48:40.225Z,3.50
2018-08-03T18:51:08.431Z,3.47
2018-08-03T18:53:36.590Z,3.70
2018-08-03T18:56:04.884Z,4.20
2018-08-03T18:58:33.069Z,3.55
2018-08-03T19:01:01.334Z,3.92
2018-08-03T19:03:29.450Z,3.92
2018-08-03T19:05:57.680Z,3.58
2018-08-03T19:08:25.830Z,3.90
2018-08-03T19:10:53.993Z,4.10
2018-08-03T19:13:22.201Z,3.80
2018-08-03T19:15:50.382Z,3.92
2018-08-03T19:18:18.566Z,3.40
2018-08-03T19:20:46.754Z,3.60
2018-08-03T19:23:14.934Z,3.83
2018-08-03T19:25:43.116Z,4.15
2018-08-03T19:28:11.306Z,4.10
2018-08-03T19:30:39.486Z,4.30
2018-08-03T19:33:07.697Z,4.47
2018-08-03T19:35:35.865Z,4.10
2018-08-03T19:38:04.183Z,3.98
2018-08-03T19:40:32.337Z,4.45
2018-08-03T19:43:00.522Z,4.17
2018-08-03T19:45:28.830Z,4.20
2018-08-03T19:47:57.001Z,3.90
2018-08-03T19:50:25.195Z,4.78
2018-08-03T19:52:53.377Z,4.28
2018-08-03T19:55:21.565Z,4.30
2018-08-03T19:57:49.750Z,4.33
2018-08-03T20:00:17.933Z,4.28
2018-08-03T20:02:46.125Z,4.03
2018-08-03T20:05:14.375Z,4.70
2018-08-03T20:07:42.504Z,3.98
2018-08-03T20:10:10.684Z,4.35
2018-08-03T20:12:38.869Z,3.98
2018-08-03T20:15:07.543Z,4.80
2018-08-03T20:17:35.654Z,4.28
2018-08-03T20:20:03.851Z,4.50
2018-08-03T20:22:32.041Z,5.03
2018-08-03T20:25:00.217Z,4.28
2018-08-03T20:27:28.398Z,4.95
2018-08-03T20:29:56.598Z,4.83
2018-08-03T20:32:24.790Z,4.87
2018-08-03T20:34:52.950Z,4.83
2018-08-03T20:37:21.165Z,4.80
2018-08-03T20:39:49.344Z,5.58
2018-08-03T20:42:17.526Z,5.05
2018-08-03T20:44:45.742Z,4.75
2018-08-03T20:47:13.891Z,4.75
2018-08-03T20:49:42.098Z,4.45
2018-08-03T20:52:10.303Z,4.78
2018-08-03T20:54:38.406Z,5.15
2018-08-03T20:57:06.540Z,4.35
2018-08-03T20:59:34.856Z,4.95
2018-08-03T21:02:03.042Z,5.10
2018-08-03T21:04:31.277Z,4.53
2018-08-03T21:06:59.388Z,4.95
2018-08-03T21:09:27.581Z,5.08
2018-08-03T21:11:55.812Z,4.78
2018-08-03T21:14:23.947Z,4.97
2018-08-03T21:16:52.169Z,5.10
2018-08-03T21:19:20.320Z,6.80
2018-08-03T21:21:48.505Z,5.80
2018-08-03T21:24:16.610Z,5.65
2018-08-03T21:26:44.765Z,5.42
2018-08-03T21:29:12.862Z,4.60
2018-08-03T21:31:41.052Z,4.95
2018-08-03T21:34:09.241Z,5.22
2018-08-03T21:36:37.417Z,5.08
2018-08-03T21:39:08.045Z,4.87
2018-08-03T21:41:36.317Z,4.95
2018-08-03T21:44:04.450Z,4.92
2018-08-03T21:46:32.629Z,5.30
2018-08-03T21:49:00.814Z,5.00
2018-08-03T21:51:28.994Z,5.05
2018-08-03T21:53:57.189Z,4.95
2018-08-03T21:56:25.383Z,4.95
2018-08-03T21:58:53.561Z,4.47
2018-08-03T22:01:21.754Z,4.90
2018-08-03T22:03:49.938Z,5.45
2018-08-03T22:06:18.129Z,4.47
2018-08-03T22:08:46.310Z,4.80
2018-08-03T22:11:14.500Z,4.83
2018-08-03T22:13:42.699Z,5.22
2018-08-03T22:16:10.874Z,4.78
2018-08-03T22:18:39.057Z,5.00
2018-08-03T22:21:07.270Z,4.65
2018-08-03T22:23:35.446Z,4.62
2018-08-03T22:26:03.627Z,4.60
2018-08-03T22:28:31.809Z,4.33
2018-08-03T22:30:59.991Z,4.97
2018-08-03T22:33:28.189Z,4.53
2018-08-03T22:35:56.358Z,4.55
2018-08-03T22:38:24.555Z,4.75
2018-08-03T22:40:52.725Z,5.03
2018-08-03T22:43:20.837Z,4.78
2018-08-03T22:45:49.002Z,4.80
2018-08-03T22:48:17.094Z,4.70
2018-08-03T22:50:45.269Z,4.75
2018-08-03T22:53:13.371Z,4.92
2018-08-03T22:55:41.550Z,4.92
2018-08-03T22:58:09.760Z,5.03
2018-08-03T23:00:37.914Z,4.70
2018-08-03T23:03:06.269Z,4.47
2018-08-03T23:05:34.413Z,4.87
2018-08-03T23:08:02.613Z,4.58
2018-08-03T23:10:31.706Z,5.05
2018-08-03T23:12:59.879Z,4.62
2018-08-03T23:15:28.072Z,4.80
2018-08-03T23:17:56.259Z,4.33
2018-08-03T23:20:24.482Z,5.03
2018-08-03T23:22:52.623Z,5.03
2018-08-03T23:25:20.729Z,4.90
2018-08-03T23:27:48.897Z,4.83
2018-08-03T23:30:17.097Z,4.45
2018-08-03T23:32:45.275Z,4.47
2018-08-03T23:35:13.458Z,4.87
2018-08-03T23:37:41.641Z,5.17
2018-08-03T23:40:09.838Z,4.95
2018-08-03T23:42:38.013Z,4.45
2018-08-03T23:45:06.479Z,5.12
2018-08-03T23:47:34.657Z,4.50
2018-08-03T23:50:02.918Z,4.47
2018-08-03T23:52:31.071Z,4.70
2018-08-03T23:54:59.150Z,4.78
2018-08-03T23:57:27.236Z,5.10
2018-08-03T23:59:55.330Z,5.12
